createdAt,value
2022-09-10T00:01:11.898Z,15.34
2022-09-10T00:04:15.531Z,15.33
2022-09-10T00:07:18.800Z,15.32
2022-09-10T00:10:20.861Z,15.31
2022-09-10T00:13:22.853Z,15.32
2022-09-10T00:16:25.557Z,15.32
2022-09-10T00:19:28.579Z,15.32
2022-09-10T00:22:30.358Z,15.32
2022-09-10T00:25:32.401Z,15.28
2022-09-10T00:28:34.168Z,15.28
2022-09-10T00:31:36.500Z,15.28
2022-09-10T00:34:38.308Z,15.22
2022-09-10T00:37:40.651Z,15.17
2022-09-10T00:40:42.413Z,15.12
2022-09-10T00:43:54.532Z,15.04
2022-09-10T00:46:56.317Z,14.96
2022-09-10T00:50:06.710Z,14.92
2022-09-10T00:53:12.841Z,14.94
2022-09-10T00:56:14.516Z,14.94
2022-09-10T00:59:18.968Z,14.95
2022-09-10T01:02:21.799Z,14.97
2022-09-10T01:05:24.428Z,14.97
2022-09-10T01:08:27.545Z,14.97
2022-09-10T01:11:36.014Z,14.97
2022-09-10T01:14:48.856Z,14.97
2022-09-10T01:18:07.091Z,14.96
2022-09-10T01:21:22.193Z,14.94
2022-09-10T01:24:52.450Z,14.92
2022-09-10T01:27:55.585Z,14.92
2022-09-10T01:31:05.671Z,14.93
2022-09-10T01:34:14.084Z,14.90
2022-09-10T01:37:25.890Z,14.88
2022-09-10T01:40:31.092Z,14.86
2022-09-10T01:43:33.914Z,14.82
2022-09-10T01:46:49.787Z,14.80
2022-09-10T01:50:21.048Z,14.79
2022-09-10T01:53:33.458Z,14.75
2022-09-10T01:57:07.365Z,14.72
2022-09-10T02:00:15.372Z,14.67
2022-09-10T02:03:21.222Z,14.66
2022-09-10T02:06:28.007Z,14.64
2022-09-10T02:09:29.660Z,14.66
2022-09-10T02:12:31.383Z,14.68
2022-09-10T02:15:33.413Z,14.67
2022-09-10T02:18:35.251Z,14.64
2022-09-10T02:21:37.434Z,14.64
2022-09-10T02:24:39.136Z,14.65
2022-09-10T02:27:43.665Z,14.67
2022-09-10T02:30:45.312Z,14.71
2022-09-10T02:33:47.353Z,14.75
2022-09-10T02:36:49.614Z,14.75
2022-09-10T02:39:51.410Z,14.76
2022-09-10T02:42:53.126Z,14.75
2022-09-10T02:45:57.174Z,14.74
2022-09-10T02:48:59.191Z,14.71
2022-09-10T02:52:02.933Z,14.70
2022-09-10T02:55:04.929Z,14.67
2022-09-10T02:58:07.179Z,14.62
2022-09-10T03:01:19.376Z,14.59
2022-09-10T03:04:21.105Z,14.55
2022-09-10T03:07:22.826Z,14.54
2022-09-10T03:10:24.562Z,14.57
2022-09-10T03:13:30.291Z,14.57
2022-09-10T03:16:32.088Z,14.56
2022-09-10T03:19:33.885Z,14.58
2022-09-10T03:22:35.576Z,14.58
2022-09-10T03:25:37.209Z,14.59
2022-09-10T03:28:39.144Z,14.59
2022-09-10T03:31:41.205Z,14.60
2022-09-10T03:34:44.355Z,14.62
2022-09-10T03:37:46.098Z,14.63
2022-09-10T03:40:47.919Z,14.61
2022-09-10T03:43:49.614Z,14.61
2022-09-10T03:46:52.146Z,14.61
2022-09-10T03:49:53.830Z,14.57
2022-09-10T03:52:56.414Z,14.56
2022-09-10T03:55:58.546Z,14.58
2022-09-10T03:59:00.658Z,14.62
2022-09-10T04:02:03.248Z,14.67
2022-09-10T04:05:07.053Z,14.70
2022-09-10T04:08:10.010Z,14.73
2022-09-10T04:11:11.782Z,14.77
2022-09-10T04:14:13.413Z,14.79
2022-09-10T04:17:15.178Z,14.80
2022-09-10T04:20:17.853Z,14.81
2022-09-10T04:23:19.602Z,14.84
2022-09-10T04:26:21.322Z,14.85
2022-09-10T04:29:23.421Z,14.86
2022-09-10T04:32:25.053Z,14.86
2022-09-10T04:35:26.839Z,14.85
2022-09-10T04:38:30.469Z,14.86
2022-09-10T04:41:32.391Z,14.86
2022-09-10T04:44:34.117Z,14.86
2022-09-10T04:47:36.262Z,14.87
2022-09-10T04:50:50.152Z,14.88
2022-09-10T04:54:01.832Z,14.88
2022-09-10T04:57:06.935Z,14.88
2022-09-10T05:00:09.213Z,14.89
2022-09-10T05:03:11.201Z,14.90
2022-09-10T05:06:12.836Z,14.92
2022-09-10T05:09:14.506Z,14.93
2022-09-10T05:12:16.594Z,14.95
2022-09-10T05:15:18.265Z,14.96
2022-09-10T05:18:19.961Z,14.96
2022-09-10T05:21:22.468Z,14.97
2022-09-10T05:24:24.228Z,14.97
2022-09-10T05:27:25.956Z,14.98
2022-09-10T05:30:33.026Z,14.98
2022-09-10T05:33:35.124Z,14.99
2022-09-10T05:36:36.835Z,15.00
2022-09-10T05:39:38.493Z,15.02
2022-09-10T05:42:40.138Z,15.02
2022-09-10T05:45:41.805Z,15.03
2022-09-10T05:48:43.885Z,15.04
2022-09-10T05:51:45.833Z,15.05
2022-09-10T05:54:47.421Z,15.06
2022-09-10T05:57:49.232Z,15.07
2022-09-10T06:00:51.650Z,15.09
2022-09-10T06:03:53.389Z,15.11
2022-09-10T06:06:55.127Z,15.14
2022-09-10T06:09:57.830Z,15.17
2022-09-10T06:12:59.535Z,15.20
2022-09-10T06:16:01.346Z,15.22
2022-09-10T06:19:03.446Z,15.24
2022-09-10T06:22:05.333Z,15.27
2022-09-10T06:25:07.375Z,15.28
2022-09-10T06:28:09.725Z,15.28
2022-09-10T06:31:17.043Z,15.29
2022-09-10T06:34:19.114Z,15.32
2022-09-10T06:37:20.869Z,15.35
2022-09-10T06:40:22.566Z,15.38
2022-09-10T06:43:26.067Z,15.39
2022-09-10T06:49:49.549Z,15.37
2022-09-10T06:52:51.717Z,15.36
2022-09-10T06:55:53.805Z,15.36
2022-09-10T06:59:01.494Z,15.38
2022-09-10T07:02:04.158Z,15.40
2022-09-10T07:05:06.249Z,15.45
2022-09-10T07:08:08.221Z,15.49
2022-09-10T07:11:14.892Z,15.54
2022-09-10T07:14:18.100Z,15.57
2022-09-10T07:17:21.229Z,15.59
2022-09-10T07:20:23.510Z,15.62
2022-09-10T07:23:25.344Z,15.66
2022-09-10T07:26:27.874Z,15.71
2022-09-10T07:29:31.379Z,15.74
2022-09-10T07:32:33.684Z,15.79
2022-09-10T07:35:36.657Z,15.89
2022-09-10T07:38:39.546Z,16.00
2022-09-10T07:41:41.310Z,16.14
2022-09-10T07:44:42.939Z,16.29
2022-09-10T07:47:44.661Z,16.34
2022-09-10T07:50:46.350Z,16.41
2022-09-10T07:53:53.536Z,16.55
2022-09-10T07:56:55.932Z,16.66
2022-09-10T07:59:58.332Z,16.74
2022-09-10T08:03:00.634Z,16.88
2022-09-10T08:06:02.828Z,16.93
2022-09-10T08:09:07.187Z,16.95
2022-09-10T08:12:09.483Z,17.00
2022-09-10T08:15:11.389Z,17.01
2022-09-10T08:18:13.809Z,16.96
2022-09-10T08:21:16.954Z,16.91
2022-09-10T08:24:18.784Z,16.80
2022-09-10T08:27:20.498Z,16.68
2022-09-10T08:30:22.218Z,16.74
2022-09-10T08:33:25.005Z,16.80
2022-09-10T08:36:26.838Z,16.83
2022-09-10T08:39:28.602Z,16.84
2022-09-10T08:42:50.212Z,16.83
2022-09-10T08:45:52.245Z,16.82
2022-09-10T08:49:14.536Z,16.79
2022-09-10T08:52:34.999Z,16.77
2022-09-10T08:55:38.180Z,16.76
2022-09-10T08:58:49.039Z,16.73
2022-09-10T09:02:04.649Z,16.67
2022-09-10T09:05:15.758Z,16.61
2022-09-10T09:08:21.919Z,16.53
2022-09-10T09:11:39.555Z,16.45
2022-09-10T09:15:09.964Z,16.37
2022-09-10T09:18:28.175Z,16.33
2022-09-10T09:21:42.062Z,16.28
2022-09-10T09:24:57.899Z,16.24
2022-09-10T09:27:59.730Z,16.18
2022-09-10T09:31:14.642Z,16.15
2022-09-10T09:34:22.737Z,16.14
2022-09-10T09:37:30.186Z,16.13
2022-09-10T09:40:37.205Z,16.13
2022-09-10T09:44:03.745Z,16.18
2022-09-10T09:47:05.385Z,16.31
2022-09-10T09:50:10.949Z,16.36
2022-09-10T09:53:27.933Z,16.46
2022-09-10T09:56:35.968Z,16.54
2022-09-10T09:59:37.670Z,16.58
2022-09-10T10:02:39.647Z,16.58
2022-09-10T10:05:42.495Z,16.59
2022-09-10T10:09:30.789Z,16.63
2022-09-10T10:12:33.255Z,16.65
2022-09-10T10:15:41.922Z,16.74
2022-09-10T10:18:45.148Z,16.84
2022-09-10T10:21:47.472Z,16.92
2022-09-10T10:24:52.626Z,16.98
2022-09-10T10:27:54.422Z,17.05
2022-09-10T10:30:59.575Z,17.07
2022-09-10T10:34:28.540Z,17.07
2022-09-10T10:37:30.766Z,17.15
2022-09-10T10:40:35.196Z,17.25
2022-09-10T10:44:06.386Z,17.32
2022-09-10T10:47:27.420Z,17.29
2022-09-10T10:50:52.881Z,17.22
2022-09-10T10:54:16.747Z,17.20
2022-09-10T10:57:40.414Z,17.26
2022-09-10T11:01:35.092Z,17.28
2022-09-10T11:04:51.687Z,17.33
2022-09-10T11:07:54.698Z,17.34
2022-09-10T11:11:01.317Z,17.36
2022-09-10T11:14:38.786Z,17.38
2022-09-10T11:17:53.501Z,17.44
2022-09-10T11:21:11.728Z,17.52
2022-09-10T11:24:37.998Z,17.61
2022-09-10T11:27:46.751Z,17.59
2022-09-10T11:30:54.699Z,17.61
2022-09-10T11:34:11.152Z,17.62
2022-09-10T11:37:20.294Z,17.79
2022-09-10T11:40:52.309Z,18.17
2022-09-10T11:44:18.022Z,18.68
2022-09-10T11:47:26.958Z,19.13
2022-09-10T11:50:48.780Z,19.47
2022-09-10T11:53:50.882Z,19.77
2022-09-10T11:57:04.248Z,19.93
2022-09-10T12:00:09.967Z,20.02
2022-09-10T12:03:28.844Z,20.09
2022-09-10T12:06:33.943Z,20.32
2022-09-10T12:09:58.588Z,20.50
2022-09-10T12:13:00.951Z,20.87
2022-09-10T12:16:29.533Z,21.41
2022-09-10T12:19:38.096Z,21.66
2022-09-10T12:22:40.532Z,21.69
2022-09-10T12:25:42.295Z,21.33
2022-09-10T12:28:53.191Z,21.11
2022-09-10T12:32:10.514Z,20.91
2022-09-10T12:35:35.395Z,20.93
2022-09-10T12:39:08.947Z,21.10
2022-09-10T12:42:31.887Z,21.29
2022-09-10T12:46:12.764Z,21.22
2022-09-10T12:49:16.956Z,20.96
2022-09-10T12:52:26.001Z,20.82
2022-09-10T12:56:15.805Z,20.60
2022-09-10T12:59:42.731Z,20.35
2022-09-10T13:03:01.395Z,20.25
2022-09-10T13:06:04.625Z,20.31
2022-09-10T13:09:18.053Z,20.33
2022-09-10T13:12:21.141Z,20.41
2022-09-10T13:15:37.202Z,20.56
2022-09-10T13:18:39.089Z,21.12
2022-09-10T13:21:40.825Z,21.83
2022-09-10T13:25:00.848Z,21.69
2022-09-10T13:28:16.856Z,21.46
2022-09-10T13:31:23.411Z,21.15
2022-09-10T13:35:01.649Z,20.90
2022-09-10T13:38:09.402Z,20.65
2022-09-10T13:41:38.732Z,20.50
2022-09-10T13:44:59.266Z,20.37
2022-09-10T13:48:06.343Z,20.22
2022-09-10T13:51:19.849Z,20.15
2022-09-10T13:54:43.585Z,20.11
2022-09-10T13:57:48.945Z,20.08
2022-09-10T14:00:56.283Z,20.00
2022-09-10T14:03:58.312Z,19.92
2022-09-10T14:07:13.155Z,19.84
2022-09-10T14:10:15.228Z,19.74
2022-09-10T14:13:22.530Z,19.61
2022-09-10T14:16:44.309Z,19.40
2022-09-10T14:19:47.882Z,19.06
2022-09-10T14:23:00.025Z,18.87
2022-09-10T14:26:14.928Z,18.73
2022-09-10T14:29:24.683Z,18.61
2022-09-10T14:32:34.410Z,18.49
2022-09-10T14:35:44.136Z,18.40
2022-09-10T14:38:58.684Z,18.30
2022-09-10T14:42:24.022Z,18.60
2022-09-10T14:45:49.891Z,18.80
2022-09-10T14:49:01.624Z,18.89
2022-09-10T14:52:04.116Z,19.00
2022-09-10T14:55:06.376Z,19.45
2022-09-10T14:58:08.036Z,19.62
2022-09-10T15:01:09.739Z,19.54
2022-09-10T15:04:16.821Z,19.39
2022-09-10T15:07:19.048Z,19.33
2022-09-10T15:10:20.770Z,19.16
2022-09-10T15:13:22.427Z,18.87
2022-09-10T15:16:24.107Z,18.58
2022-09-10T15:19:25.956Z,18.35
2022-09-10T15:22:30.488Z,18.16
2022-09-10T15:25:39.563Z,17.97
2022-09-10T15:28:41.920Z,17.80
2022-09-10T15:31:44.284Z,17.66
2022-09-10T15:34:46.002Z,17.54
2022-09-10T15:37:47.756Z,17.43
2022-09-10T15:40:50.612Z,17.36
2022-09-10T15:43:52.373Z,17.33
2022-09-10T15:46:54.046Z,17.29
2022-09-10T15:49:56.764Z,17.26
2022-09-10T15:52:59.291Z,17.23
2022-09-10T15:56:02.886Z,17.20
2022-09-10T15:59:08.778Z,17.38
2022-09-10T16:02:13.199Z,17.42
2022-09-10T16:05:16.420Z,17.36
2022-09-10T16:08:18.108Z,17.30
2022-09-10T16:11:20.350Z,17.37
2022-09-10T16:14:23.541Z,17.44
2022-09-10T16:17:25.410Z,17.46
2022-09-10T16:20:27.515Z,17.35
2022-09-10T16:23:29.188Z,17.22
2022-09-10T16:26:36.841Z,17.09
2022-09-10T16:29:40.189Z,16.98
2022-09-10T16:32:41.831Z,16.88
2022-09-10T16:35:43.469Z,16.79
2022-09-10T16:38:45.468Z,16.67
2022-09-10T16:41:48.785Z,16.58
2022-09-10T16:44:50.493Z,16.51
2022-09-10T16:47:55.392Z,16.48
2022-09-10T16:51:12.994Z,16.42
2022-09-10T16:54:14.945Z,16.31
2022-09-10T16:57:16.595Z,16.19
2022-09-10T17:00:19.103Z,16.11
2022-09-10T17:03:23.924Z,16.06
2022-09-10T17:06:27.654Z,16.03
2022-09-10T17:09:29.393Z,15.98
2022-09-10T17:12:31.002Z,15.92
2022-09-10T17:15:32.803Z,15.86
2022-09-10T17:18:34.479Z,15.80
2022-09-10T17:21:38.142Z,15.74
2022-09-10T17:24:39.765Z,15.65
2022-09-10T17:27:41.492Z,15.56
2022-09-10T17:30:43.190Z,15.48
2022-09-10T17:33:44.980Z,15.42
2022-09-10T17:36:47.794Z,15.36
2022-09-10T17:39:51.630Z,15.27
2022-09-10T17:42:53.921Z,15.13
2022-09-10T17:45:55.962Z,15.03
2022-09-10T17:48:59.049Z,14.96
2022-09-10T17:52:00.879Z,14.92
2022-09-10T17:55:02.653Z,14.91
2022-09-10T17:58:04.318Z,14.91
2022-09-10T18:01:09.002Z,14.90
2022-09-10T18:04:15.750Z,14.90
2022-09-10T18:07:18.355Z,14.90
2022-09-10T18:10:20.557Z,14.92
2022-09-10T18:13:23.192Z,14.93
2022-09-10T18:16:27.595Z,14.91
2022-09-10T18:19:29.328Z,14.92
2022-09-10T18:22:31.049Z,14.89
2022-09-10T18:25:33.186Z,14.81
2022-09-10T18:28:34.838Z,14.82
2022-09-10T18:31:42.255Z,14.86
2022-09-10T19:14:31.973Z,14.83
2022-09-10T19:17:38.814Z,14.79
2022-09-10T19:20:40.749Z,14.77
2022-09-10T19:23:42.515Z,14.66
2022-09-10T19:26:44.804Z,14.53
2022-09-10T19:29:47.387Z,14.43
2022-09-10T19:32:49.190Z,14.30
2022-09-10T19:35:55.928Z,14.13
2022-09-10T19:38:59.701Z,13.94
2022-09-10T19:42:01.322Z,13.78
2022-09-10T19:45:05.915Z,13.63
2022-09-10T19:48:11.299Z,13.51
2022-09-10T19:51:15.402Z,13.36
2022-09-10T19:54:17.099Z,13.21
2022-09-10T19:57:18.900Z,13.06
2022-09-10T20:00:45.395Z,12.94
2022-09-10T20:03:44.869Z,12.82
2022-09-10T20:06:47.731Z,12.69
2022-09-10T20:09:49.744Z,12.61
2022-09-10T20:12:52.239Z,12.57
2022-09-10T20:15:54.550Z,12.53
2022-09-10T20:18:56.474Z,12.50
2022-09-10T20:21:58.153Z,12.45
2022-09-10T20:25:00.013Z,12.39
2022-09-10T20:28:01.991Z,12.33
2022-09-10T20:31:09.013Z,12.27
2022-09-10T20:34:12.864Z,12.23
2022-09-10T20:37:14.488Z,12.21
2022-09-10T20:40:16.116Z,12.15
2022-09-10T20:43:17.889Z,12.07
2022-09-10T20:46:22.412Z,12.02
2022-09-10T20:49:24.390Z,11.99
2022-09-10T20:52:26.177Z,11.97
2022-09-10T20:55:27.965Z,11.98
2022-09-10T20:58:29.590Z,11.99
2022-09-10T21:01:31.297Z,12.02
2022-09-10T21:04:33.213Z,12.05
2022-09-10T21:07:35.046Z,12.07
2022-09-10T21:10:37.676Z,12.08
2022-09-10T21:13:49.856Z,12.06
2022-09-10T21:16:51.890Z,12.02
2022-09-10T21:19:53.813Z,11.99
2022-09-10T21:22:56.510Z,11.95
2022-09-10T21:25:58.258Z,11.92
2022-09-10T21:29:03.612Z,11.88
2022-09-10T21:32:05.356Z,11.85
2022-09-10T21:35:07.485Z,11.85
2022-09-10T21:38:09.168Z,11.87
2022-09-10T21:41:12.604Z,11.90
2022-09-10T21:44:16.737Z,11.95
2022-09-10T21:47:18.482Z,11.99
2022-09-10T21:50:20.206Z,12.03
2022-09-10T21:53:22.674Z,12.06
2022-09-10T21:56:26.292Z,12.08
2022-09-10T21:59:27.929Z,12.08
2022-09-10T22:02:31.678Z,12.06
2022-09-10T22:05:33.504Z,12.05
2022-09-10T22:08:36.349Z,12.07
2022-09-10T22:11:41.899Z,12.08
2022-09-10T22:14:43.586Z,12.09
2022-09-10T22:17:45.330Z,12.09
2022-09-10T22:20:47.095Z,12.09
2022-09-10T22:23:51.554Z,12.10
2022-09-10T22:26:54.788Z,12.12
2022-09-10T22:29:56.910Z,12.13
2022-09-10T22:32:58.569Z,12.15
2022-09-10T22:36:13.524Z,12.19
2022-09-10T22:39:17.857Z,12.24
2022-09-10T22:42:21.165Z,12.32
2022-09-10T22:45:24.060Z,12.38
2022-09-10T22:48:25.700Z,12.46
2022-09-10T22:51:29.610Z,12.53
2022-09-10T22:54:31.460Z,12.61
2022-09-10T22:57:33.132Z,12.68
2022-09-10T23:00:36.105Z,12.74
2022-09-10T23:03:38.006Z,12.77
2022-09-10T23:07:00.933Z,12.76
2022-09-10T23:10:02.737Z,12.72
2022-09-10T23:13:05.268Z,12.70
2022-09-10T23:16:11.428Z,12.68
2022-09-10T23:19:15.677Z,12.70
2022-09-10T23:22:17.638Z,12.72
2022-09-10T23:25:19.722Z,12.74
2022-09-10T23:28:26.704Z,12.78
2022-09-10T23:31:29.655Z,12.78
2022-09-10T23:34:31.467Z,12.80
2022-09-10T23:37:33.424Z,12.83
2022-09-10T23:40:35.128Z,12.85
2022-09-10T23:43:36.947Z,12.86
2022-09-10T23:46:38.899Z,12.88
2022-09-10T23:49:40.665Z,12.90
2022-09-10T23:52:42.318Z,12.93
2022-09-10T23:55:44.258Z,12.94
2022-09-10T23:58:46.418Z,12.95
